Nisshoumaru — JD3093 — position and weather

sailwx.info

Track history (hours):
 
Tides and Currents Weather Stations Pressure Air Temp Water Temp Dewpoint Dewpoint Depression Visibility Wind Speed Wind Dir Waves Ship Positions

Nisshoumaru

Last reported at 2015-Jan-28 10:26 UTC. Time now 2015-Jan-29 22:27 UTC.
Position N 34°55' E 140°00'.

Length 76 m; draft 4 m.

Type: Cargo ship. MMSI: 431001549.

Date/timePositionNaut miles runAvg speedWind from/ knotsBaromVisibWave heightAir tempDewpointWater temp
2015-Jan-28 10:26N 34°55' E 140°00'1111.1
2015-Jan-28 09:28N 34°54' E 139°47'1111.7
2015-Jan-28 08:33N 35°04' E 139°44'1312.8
2015-Jan-28 07:33N 35°17' E 139°45'1110.6
2015-Jan-28 06:33N 35°27' E 139°48'2 0.2
2015-Jan-27 22:21N 35°26' E 139°49'810.7
2015-Jan-27 21:33N 35°18' E 139°45'1110.9
2015-Jan-27 20:33N 35°07' E 139°44'1211.5
2015-Jan-27 19:33N 34°59' E 139°34'231 9.9
2015-Jan-26 20:15N 34°14' E 134°59'913.0
2015-Jan-26 19:33N 34°23' E 134°60'1212.4
2015-Jan-26 18:33N 34°35' E 135°04'  
2015-Jan-22 07:10N 34°40' E 134°49'6 9.8
2015-Jan-22 06:34N 34°37' E 134°55'9 8.8
2015-Jan-22 05:33N 34°35' E 135°05'1512.2
2015-Jan-22 04:21N 34°20' E 135°01'911.2
2015-Jan-22 03:33N 34°12' E 134°60'20810.2
2015-Jan-21 07:07N 34°47' E 139°08'2013.1
2015-Jan-21 05:33N 34°59' E 139°28'1313.2
2015-Jan-21 04:33N 35°06' E 139°41'1211.5
2015-Jan-21 03:33N 35°18' E 139°44'7 6.8
2015-Jan-21 02:33N 35°24' E 139°48'3 3.1
2015-Jan-21 01:31N 35°22' E 139°51'0 0.0
2015-Jan-21 00:33N 35°22' E 139°51'0 0.0
2015-Jan-20 23:08N 35°22' E 139°51'0 0.0
2015-Jan-20 22:32N 35°22' E 139°51'2 1.7
2015-Jan-20 21:33N 35°22' E 139°49'0 0.0
2015-Jan-20 20:33N 35°22' E 139°49'0 0.0
2015-Jan-20 19:33N 35°22' E 139°49'0 0.0
2015-Jan-20 18:33N 35°22' E 139°49'0 0.0
2015-Jan-20 17:33N 35°22' E 139°49'0 0.0
2015-Jan-20 16:33N 35°22' E 139°49'0 0.0
2015-Jan-20 15:33N 35°22' E 139°49'0 0.0
2015-Jan-20 14:34N 35°22' E 139°49'0 0.0
2015-Jan-20 13:33N 35°22' E 139°49'0 0.0
2015-Jan-20 12:33N 35°22' E 139°49'0 0.0
2015-Jan-20 11:33N 35°22' E 139°49'0 0.0
2015-Jan-20 10:33N 35°22' E 139°49'0 0.0
2015-Jan-20 09:33N 35°22' E 139°49'17 0.6
2015-Jan-19 04:29N 35°35' E 140°03'8 5.3
2015-Jan-19 03:04N 35°31' E 139°55'712.6
2015-Jan-19 02:32N 35°26' E 139°49'1111.0
2015-Jan-19 01:33N 35°16' E 139°47'1211.8
2015-Jan-19 00:33N 35°04' E 139°43'1312.8
2015-Jan-18 23:33N 34°57' E 139°30'  
Track history (hours):
 
Tides and Currents Weather Stations Pressure Air Temp Water Temp Dewpoint Dewpoint Depression Visibility Wind Speed Wind Dir Waves Ship Positions

Nisshoumaru

Last reported at 2015-Jan-28 10:26 UTC. Time now 2015-Jan-29 22:27 UTC.
Position N 34°55' E 140°00'.

Length 76 m; draft 4 m.

Type: Cargo ship. MMSI: 431001549.

Date/timePositionNaut miles runAvg speedWind from/ knotsBaromVisibWave heightAir tempDewpointWater temp
2015-Jan-28 10:26N 34°55' E 140°00'1111.1
2015-Jan-28 09:28N 34°54' E 139°47'1111.7
2015-Jan-28 08:33N 35°04' E 139°44'1312.8
2015-Jan-28 07:33N 35°17' E 139°45'1110.6
2015-Jan-28 06:33N 35°27' E 139°48'2 0.2
2015-Jan-27 22:21N 35°26' E 139°49'810.7
2015-Jan-27 21:33N 35°18' E 139°45'1110.9
2015-Jan-27 20:33N 35°07' E 139°44'1211.5
2015-Jan-27 19:33N 34°59' E 139°34'231 9.9
2015-Jan-26 20:15N 34°14' E 134°59'913.0
2015-Jan-26 19:33N 34°23' E 134°60'1212.4
2015-Jan-26 18:33N 34°35' E 135°04'  
2015-Jan-22 07:10N 34°40' E 134°49'6 9.8
2015-Jan-22 06:34N 34°37' E 134°55'9 8.8
2015-Jan-22 05:33N 34°35' E 135°05'1512.2
2015-Jan-22 04:21N 34°20' E 135°01'911.2
2015-Jan-22 03:33N 34°12' E 134°60'20810.2
2015-Jan-21 07:07N 34°47' E 139°08'2013.1
2015-Jan-21 05:33N 34°59' E 139°28'1313.2
2015-Jan-21 04:33N 35°06' E 139°41'1211.5
2015-Jan-21 03:33N 35°18' E 139°44'7 6.8
2015-Jan-21 02:33N 35°24' E 139°48'3 3.1
2015-Jan-21 01:31N 35°22' E 139°51'0 0.0
2015-Jan-21 00:33N 35°22' E 139°51'0 0.0
2015-Jan-20 23:08N 35°22' E 139°51'0 0.0
2015-Jan-20 22:32N 35°22' E 139°51'2 1.7
2015-Jan-20 21:33N 35°22' E 139°49'0 0.0
2015-Jan-20 20:33N 35°22' E 139°49'0 0.0
2015-Jan-20 19:33N 35°22' E 139°49'0 0.0
2015-Jan-20 18:33N 35°22' E 139°49'0 0.0
2015-Jan-20 17:33N 35°22' E 139°49'0 0.0
2015-Jan-20 16:33N 35°22' E 139°49'0 0.0
2015-Jan-20 15:33N 35°22' E 139°49'0 0.0
2015-Jan-20 14:34N 35°22' E 139°49'0 0.0
2015-Jan-20 13:33N 35°22' E 139°49'0 0.0
2015-Jan-20 12:33N 35°22' E 139°49'0 0.0
2015-Jan-20 11:33N 35°22' E 139°49'0 0.0
2015-Jan-20 10:33N 35°22' E 139°49'0 0.0
2015-Jan-20 09:33N 35°22' E 139°49'17 0.6
2015-Jan-19 04:29N 35°35' E 140°03'8 5.3
2015-Jan-19 03:04N 35°31' E 139°55'712.6
2015-Jan-19 02:32N 35°26' E 139°49'1111.0
2015-Jan-19 01:33N 35°16' E 139°47'1211.8
2015-Jan-19 00:33N 35°04' E 139°43'1312.8
2015-Jan-18 23:33N 34°57' E 139°30'  

Dump ship's entire track history